Terminal Aerodrome Forecast
Issued by NWS Memphis, TN

Home | Current Version | Previous Version | Text Only | Print | Product List | Glossary On
Versions: 1 2 3 4 5 6 7 8 9 10 11 12 13 14 15 16 17 18 19 20 21 22 23 24 25 26 27 28 29 30 31
733
FTUS44 KMEG 241130
TAFMEM
TAF
KMEM 241130Z 2412/2518 19005KT P6SM SKC
     FM241600 20010KT P6SM BKN250
     FM250000 20007KT P6SM SCT120
     FM250500 22006KT P6SM BKN070 BKN120
     FM251200 22006KT P6SM VCSH BKN060 OVC090
     FM251500 30005KT P6SM VCSH BKN050 OVC080=

USA.gov is the U.S. government's official web portal to all federal, state and local government web resources and services.